Bootsie B, — WDF9484 — position and weather

sailwx.info

Track history (hours):
 
Tides and Currents Weather Stations Pressure Air Temp Water Temp Dewpoint Dewpoint Depression Visibility Wind Speed Wind Dir Waves Ship Positions

Bootsie B,

Owner: Marquette Transp[ortation Co. LLC, Paducah, KY. More information available from US FCC via Universal Licensing System and Coast Guard Vessel Documentation Center.

Last reported at 2015-Jun-30 19:33 UTC. Time now 2015-Jul-03 22:00 UTC.
Position N 30°37' W 091°18'.

Length 57 m; draft 2 m.

Type: Towing. MMSI: 367505630.

Date/timePositionNaut miles runAvg speedWind from/ knotsBaromVisibWave heightAir tempDewpointWater temp
2015-Jun-30 19:33N 30°37' W 091°18'5 4.8
2015-Jun-30 18:33N 30°33' W 091°15'3 3.3
2015-Jun-30 17:34N 30°30' W 091°16'4 3.6
2015-Jun-30 16:33N 30°30' W 091°12'3 3.2
2015-Jun-30 15:33N 30°27' W 091°12'5 4.7
2015-Jun-30 14:33N 30°22' W 091°14'4 4.0
2015-Jun-30 13:30N 30°20' W 091°10'3 3.1
2015-Jun-30 12:33N 30°19' W 091°12'  
2015-Jun-27 19:22N 30°17' W 091°12'5 5.3
2015-Jun-27 18:31N 30°20' W 091°09'5 5.6
2015-Jun-27 17:33N 30°25' W 091°12'7 6.6
2015-Jun-27 16:33N 30°31' W 091°13'2 2.2
2015-Jun-27 15:33N 30°33' W 091°14'9 8.8
2015-Jun-27 14:31N 30°40' W 091°21'  
Track history (hours):
 
Tides and Currents Weather Stations Pressure Air Temp Water Temp Dewpoint Dewpoint Depression Visibility Wind Speed Wind Dir Waves Ship Positions

Bootsie B,

Owner: Marquette Transp[ortation Co. LLC, Paducah, KY. More information available from US FCC via Universal Licensing System and Coast Guard Vessel Documentation Center.

Last reported at 2015-Jun-30 19:33 UTC. Time now 2015-Jul-03 22:00 UTC.
Position N 30°37' W 091°18'.

Length 57 m; draft 2 m.

Type: Towing. MMSI: 367505630.

Date/timePositionNaut miles runAvg speedWind from/ knotsBaromVisibWave heightAir tempDewpointWater temp
2015-Jun-30 19:33N 30°37' W 091°18'5 4.8
2015-Jun-30 18:33N 30°33' W 091°15'3 3.3
2015-Jun-30 17:34N 30°30' W 091°16'4 3.6
2015-Jun-30 16:33N 30°30' W 091°12'3 3.2
2015-Jun-30 15:33N 30°27' W 091°12'5 4.7
2015-Jun-30 14:33N 30°22' W 091°14'4 4.0
2015-Jun-30 13:30N 30°20' W 091°10'3 3.1
2015-Jun-30 12:33N 30°19' W 091°12'  
2015-Jun-27 19:22N 30°17' W 091°12'5 5.3
2015-Jun-27 18:31N 30°20' W 091°09'5 5.6
2015-Jun-27 17:33N 30°25' W 091°12'7 6.6
2015-Jun-27 16:33N 30°31' W 091°13'2 2.2
2015-Jun-27 15:33N 30°33' W 091°14'9 8.8
2015-Jun-27 14:31N 30°40' W 091°21'  

Dump ship's entire track history